sensor_id;sensor_type;location;lat;lon;timestamp;P1;durP1;ratioP1;P2;durP2;ratioP2
27566;SDS011;15006;48.584;9.186;2022-12-18T00:01:19;97.45;;;32.67;;
27566;SDS011;15006;48.584;9.186;2022-12-18T00:03:55;86.28;;;31.38;;
27566;SDS011;15006;48.584;9.186;2022-12-18T00:06:25;86.95;;;31.98;;
27566;SDS011;15006;48.584;9.186;2022-12-18T00:08:59;91.55;;;31.23;;
27566;SDS011;15006;48.584;9.186;2022-12-18T00:11:37;86.90;;;30.88;;
27566;SDS011;15006;48.584;9.186;2022-12-18T00:14:04;97.25;;;34.22;;
27566;SDS011;15006;48.584;9.186;2022-12-18T00:16:31;86.88;;;33.10;;
27566;SDS011;15006;48.584;9.186;2022-12-18T00:19:01;81.13;;;30.60;;
27566;SDS011;15006;48.584;9.186;2022-12-18T00:21:29;92.85;;;32.38;;
27566;SDS011;15006;48.584;9.186;2022-12-18T00:24:00;86.95;;;31.75;;
27566;SDS011;15006;48.584;9.186;2022-12-18T00:26:29;88.45;;;31.80;;
27566;SDS011;15006;48.584;9.186;2022-12-18T00:29:01;86.10;;;31.65;;
27566;SDS011;15006;48.584;9.186;2022-12-18T00:31:42;87.32;;;31.88;;
27566;SDS011;15006;48.584;9.186;2022-12-18T00:34:10;92.30;;;32.97;;
27566;SDS011;15006;48.584;9.186;2022-12-18T00:36:40;85.30;;;31.70;;
27566;SDS011;15006;48.584;9.186;2022-12-18T00:39:10;62.67;;;23.40;;
27566;SDS011;15006;48.584;9.186;2022-12-18T00:41:38;90.60;;;31.55;;
27566;SDS011;15006;48.584;9.186;2022-12-18T00:44:28;91.50;;;30.40;;
27566;SDS011;15006;48.584;9.186;2022-12-18T00:46:56;73.82;;;28.30;;
27566;SDS011;15006;48.584;9.186;2022-12-18T00:49:23;76.25;;;28.02;;
27566;SDS011;15006;48.584;9.186;2022-12-18T00:51:49;79.18;;;26.15;;
27566;SDS011;15006;48.584;9.186;2022-12-18T00:54:16;74.13;;;26.67;;
27566;SDS011;15006;48.584;9.186;2022-12-18T00:56:43;72.57;;;27.40;;
27566;SDS011;15006;48.584;9.186;2022-12-18T00:59:09;84.90;;;28.75;;
27566;SDS011;15006;48.584;9.186;2022-12-18T01:01:37;82.15;;;29.13;;
27566;SDS011;15006;48.584;9.186;2022-12-18T01:04:03;83.40;;;27.38;;
27566;SDS011;15006;48.584;9.186;2022-12-18T01:06:32;84.18;;;29.00;;
27566;SDS011;15006;48.584;9.186;2022-12-18T01:08:58;84.97;;;28.52;;
27566;SDS011;15006;48.584;9.186;2022-12-18T01:11:24;75.85;;;28.13;;
27566;SDS011;15006;48.584;9.186;2022-12-18T01:13:51;79.65;;;27.50;;
27566;SDS011;15006;48.584;9.186;2022-12-18T01:16:19;80.57;;;27.85;;
27566;SDS011;15006;48.584;9.186;2022-12-18T01:18:45;80.75;;;26.67;;
27566;SDS011;15006;48.584;9.186;2022-12-18T01:21:13;74.05;;;26.30;;
27566;SDS011;15006;48.584;9.186;2022-12-18T01:23:44;81.67;;;29.00;;
27566;SDS011;15006;48.584;9.186;2022-12-18T01:26:11;75.33;;;28.43;;
27566;SDS011;15006;48.584;9.186;2022-12-18T01:28:41;83.53;;;28.15;;
27566;SDS011;15006;48.584;9.186;2022-12-18T01:31:10;77.10;;;27.35;;
27566;SDS011;15006;48.584;9.186;2022-12-18T01:33:40;71.10;;;27.77;;
27566;SDS011;15006;48.584;9.186;2022-12-18T01:36:07;73.75;;;28.13;;
27566;SDS011;15006;48.584;9.186;2022-12-18T01:38:39;75.22;;;27.40;;
27566;SDS011;15006;48.584;9.186;2022-12-18T01:41:05;72.30;;;27.40;;
27566;SDS011;15006;48.584;9.186;2022-12-18T01:43:46;73.53;;;27.13;;
27566;SDS011;15006;48.584;9.186;2022-12-18T01:46:23;66.38;;;25.40;;
27566;SDS011;15006;48.584;9.186;2022-12-18T01:48:53;61.50;;;23.88;;
27566;SDS011;15006;48.584;9.186;2022-12-18T01:51:25;61.85;;;24.23;;
27566;SDS011;15006;48.584;9.186;2022-12-18T01:53:54;66.93;;;27.10;;
27566;SDS011;15006;48.584;9.186;2022-12-18T01:56:20;79.40;;;28.67;;
27566;SDS011;15006;48.584;9.186;2022-12-18T01:58:52;74.80;;;28.08;;
27566;SDS011;15006;48.584;9.186;2022-12-18T02:01:27;68.47;;;25.40;;
27566;SDS011;15006;48.584;9.186;2022-12-18T02:06:53;80.90;;;29.38;;
27566;SDS011;15006;48.584;9.186;2022-12-18T02:09:48;87.63;;;30.02;;
27566;SDS011;15006;48.584;9.186;2022-12-18T02:12:23;85.05;;;30.58;;
27566;SDS011;15006;48.584;9.186;2022-12-18T02:15:05;77.18;;;29.13;;
27566;SDS011;15006;48.584;9.186;2022-12-18T02:17:42;82.55;;;28.92;;
27566;SDS011;15006;48.584;9.186;2022-12-18T02:23:12;73.60;;;28.33;;
27566;SDS011;15006;48.584;9.186;2022-12-18T02:26:36;76.03;;;27.80;;
27566;SDS011;15006;48.584;9.186;2022-12-18T02:29:18;81.45;;;28.85;;
27566;SDS011;15006;48.584;9.186;2022-12-18T02:31:53;81.00;;;29.25;;
27566;SDS011;15006;48.584;9.186;2022-12-18T02:34:23;83.35;;;29.85;;
27566;SDS011;15006;48.584;9.186;2022-12-18T02:36:54;78.30;;;29.65;;
27566;SDS011;15006;48.584;9.186;2022-12-18T02:39:23;81.47;;;29.98;;
27566;SDS011;15006;48.584;9.186;2022-12-18T02:41:52;82.88;;;29.88;;
27566;SDS011;15006;48.584;9.186;2022-12-18T02:44:18;82.53;;;30.75;;
27566;SDS011;15006;48.584;9.186;2022-12-18T02:46:50;73.32;;;28.52;;
27566;SDS011;15006;48.584;9.186;2022-12-18T02:49:38;74.20;;;29.08;;
27566;SDS011;15006;48.584;9.186;2022-12-18T02:52:24;70.25;;;28.80;;
27566;SDS011;15006;48.584;9.186;2022-12-18T03:01:09;80.03;;;27.60;;
27566;SDS011;15006;48.584;9.186;2022-12-18T03:03:47;72.18;;;27.27;;
27566;SDS011;15006;48.584;9.186;2022-12-18T03:06:21;70.60;;;27.52;;
27566;SDS011;15006;48.584;9.186;2022-12-18T03:08:57;65.05;;;25.98;;
27566;SDS011;15006;48.584;9.186;2022-12-18T03:11:36;67.30;;;26.33;;
27566;SDS011;15006;48.584;9.186;2022-12-18T03:14:24;74.93;;;27.40;;
27566;SDS011;15006;48.584;9.186;2022-12-18T03:16:54;67.68;;;27.13;;
27566;SDS011;15006;48.584;9.186;2022-12-18T03:19:28;68.60;;;26.90;;
27566;SDS011;15006;48.584;9.186;2022-12-18T03:21:57;63.08;;;25.92;;
27566;SDS011;15006;48.584;9.186;2022-12-18T03:24:26;63.67;;;25.02;;
27566;SDS011;15006;48.584;9.186;2022-12-18T03:27:02;65.43;;;26.58;;
27566;SDS011;15006;48.584;9.186;2022-12-18T03:29:37;68.70;;;27.70;;
27566;SDS011;15006;48.584;9.186;2022-12-18T03:32:12;67.05;;;27.13;;
27566;SDS011;15006;48.584;9.186;2022-12-18T03:34:53;71.15;;;27.52;;
27566;SDS011;15006;48.584;9.186;2022-12-18T03:37:26;64.45;;;25.92;;
27566;SDS011;15006;48.584;9.186;2022-12-18T03:39:53;68.07;;;26.38;;
27566;SDS011;15006;48.584;9.186;2022-12-18T03:48:03;59.40;;;24.48;;
27566;SDS011;15006;48.584;9.186;2022-12-18T03:53:33;62.70;;;24.55;;
27566;SDS011;15006;48.584;9.186;2022-12-18T03:56:26;60.90;;;24.67;;
27566;SDS011;15006;48.584;9.186;2022-12-18T03:58:57;59.67;;;24.05;;
27566;SDS011;15006;48.584;9.186;2022-12-18T04:01:33;71.72;;;26.75;;
27566;SDS011;15006;48.584;9.186;2022-12-18T04:04:09;63.38;;;24.75;;
27566;SDS011;15006;48.584;9.186;2022-12-18T04:06:37;69.53;;;27.58;;
27566;SDS011;15006;48.584;9.186;2022-12-18T04:09:04;74.68;;;27.00;;
27566;SDS011;15006;48.584;9.186;2022-12-18T04:11:30;67.82;;;25.63;;
27566;SDS011;15006;48.584;9.186;2022-12-18T04:13:57;63.33;;;24.63;;
27566;SDS011;15006;48.584;9.186;2022-12-18T04:16:27;69.00;;;27.08;;
27566;SDS011;15006;48.584;9.186;2022-12-18T04:18:53;66.38;;;27.30;;
27566;SDS011;15006;48.584;9.186;2022-12-18T04:21:26;64.85;;;26.13;;
27566;SDS011;15006;48.584;9.186;2022-12-18T04:23:52;65.63;;;25.65;;
27566;SDS011;15006;48.584;9.186;2022-12-18T04:26:18;60.75;;;25.63;;
27566;SDS011;15006;48.584;9.186;2022-12-18T04:28:45;63.33;;;24.65;;
27566;SDS011;15006;48.584;9.186;2022-12-18T04:31:11;64.53;;;25.20;;
27566;SDS011;15006;48.584;9.186;2022-12-18T04:33:37;60.15;;;25.08;;
27566;SDS011;15006;48.584;9.186;2022-12-18T04:36:04;64.00;;;24.67;;
27566;SDS011;15006;48.584;9.186;2022-12-18T04:38:30;65.25;;;25.50;;
27566;SDS011;15006;48.584;9.186;2022-12-18T04:40:56;70.82;;;26.88;;
27566;SDS011;15006;48.584;9.186;2022-12-18T04:43:22;65.57;;;27.02;;
27566;SDS011;15006;48.584;9.186;2022-12-18T04:45:48;64.05;;;26.90;;
27566;SDS011;15006;48.584;9.186;2022-12-18T04:48:14;70.28;;;28.40;;
27566;SDS011;15006;48.584;9.186;2022-12-18T04:50:40;74.88;;;27.25;;
27566;SDS011;15006;48.584;9.186;2022-12-18T04:53:06;67.40;;;27.42;;
27566;SDS011;15006;48.584;9.186;2022-12-18T04:55:32;68.30;;;26.17;;
27566;SDS011;15006;48.584;9.186;2022-12-18T04:57:58;65.45;;;27.98;;
27566;SDS011;15006;48.584;9.186;2022-12-18T05:00:24;68.45;;;27.08;;
27566;SDS011;15006;48.584;9.186;2022-12-18T05:02:50;71.85;;;28.45;;
27566;SDS011;15006;48.584;9.186;2022-12-18T05:05:16;73.53;;;29.08;;
27566;SDS011;15006;48.584;9.186;2022-12-18T05:07:42;74.57;;;28.17;;
27566;SDS011;15006;48.584;9.186;2022-12-18T05:10:08;70.43;;;28.25;;
27566;SDS011;15006;48.584;9.186;2022-12-18T05:12:34;68.50;;;26.75;;
27566;SDS011;15006;48.584;9.186;2022-12-18T05:15:20;65.70;;;26.88;;
27566;SDS011;15006;48.584;9.186;2022-12-18T05:17:46;74.20;;;28.88;;
27566;SDS011;15006;48.584;9.186;2022-12-18T05:20:12;70.43;;;29.05;;
27566;SDS011;15006;48.584;9.186;2022-12-18T05:22:38;75.18;;;29.38;;
27566;SDS011;15006;48.584;9.186;2022-12-18T05:25:04;68.82;;;27.17;;
27566;SDS011;15006;48.584;9.186;2022-12-18T05:27:30;71.68;;;27.40;;
27566;SDS011;15006;48.584;9.186;2022-12-18T05:29:56;66.55;;;28.65;;
27566;SDS011;15006;48.584;9.186;2022-12-18T05:32:22;76.20;;;29.15;;
27566;SDS011;15006;48.584;9.186;2022-12-18T05:34:48;71.70;;;28.65;;
27566;SDS011;15006;48.584;9.186;2022-12-18T05:37:14;75.18;;;27.05;;
27566;SDS011;15006;48.584;9.186;2022-12-18T05:39:40;71.57;;;27.95;;
27566;SDS011;15006;48.584;9.186;2022-12-18T05:42:06;74.60;;;29.63;;
27566;SDS011;15006;48.584;9.186;2022-12-18T05:44:32;68.75;;;27.17;;
27566;SDS011;15006;48.584;9.186;2022-12-18T05:46:59;76.57;;;26.52;;
27566;SDS011;15006;48.584;9.186;2022-12-18T05:49:25;69.75;;;27.80;;
27566;SDS011;15006;48.584;9.186;2022-12-18T05:51:51;70.68;;;26.92;;
27566;SDS011;15006;48.584;9.186;2022-12-18T05:54:17;78.47;;;28.45;;
27566;SDS011;15006;48.584;9.186;2022-12-18T05:56:43;80.50;;;29.42;;
27566;SDS011;15006;48.584;9.186;2022-12-18T05:59:09;87.72;;;29.65;;
27566;SDS011;15006;48.584;9.186;2022-12-18T06:01:35;85.57;;;29.70;;
27566;SDS011;15006;48.584;9.186;2022-12-18T06:04:01;73.10;;;29.90;;
27566;SDS011;15006;48.584;9.186;2022-12-18T06:06:27;65.07;;;26.70;;
27566;SDS011;15006;48.584;9.186;2022-12-18T06:08:54;73.43;;;27.38;;
27566;SDS011;15006;48.584;9.186;2022-12-18T06:11:23;68.72;;;27.30;;
27566;SDS011;15006;48.584;9.186;2022-12-18T06:13:54;54.42;;;21.67;;
27566;SDS011;15006;48.584;9.186;2022-12-18T06:16:22;73.80;;;29.00;;
27566;SDS011;15006;48.584;9.186;2022-12-18T06:18:48;78.95;;;28.73;;
27566;SDS011;15006;48.584;9.186;2022-12-18T06:21:14;74.05;;;27.30;;
27566;SDS011;15006;48.584;9.186;2022-12-18T06:23:40;77.75;;;28.13;;
27566;SDS011;15006;48.584;9.186;2022-12-18T06:26:08;69.20;;;28.13;;
27566;SDS011;15006;48.584;9.186;2022-12-18T06:28:37;78.28;;;28.08;;
27566;SDS011;15006;48.584;9.186;2022-12-18T06:31:04;76.43;;;29.27;;
27566;SDS011;15006;48.584;9.186;2022-12-18T06:33:30;74.97;;;28.00;;
27566;SDS011;15006;48.584;9.186;2022-12-18T06:36:07;94.55;;;33.38;;
27566;SDS011;15006;48.584;9.186;2022-12-18T06:38:40;102.30;;;35.72;;
27566;SDS011;15006;48.584;9.186;2022-12-18T06:41:08;90.25;;;32.58;;
27566;SDS011;15006;48.584;9.186;2022-12-18T06:43:36;96.88;;;35.08;;
27566;SDS011;15006;48.584;9.186;2022-12-18T06:46:02;83.63;;;30.08;;
27566;SDS011;15006;48.584;9.186;2022-12-18T06:48:29;71.82;;;27.20;;
27566;SDS011;15006;48.584;9.186;2022-12-18T06:50:55;73.65;;;28.08;;
27566;SDS011;15006;48.584;9.186;2022-12-18T06:53:22;68.13;;;26.33;;
27566;SDS011;15006;48.584;9.186;2022-12-18T06:55:48;80.10;;;30.13;;
27566;SDS011;15006;48.584;9.186;2022-12-18T06:58:14;79.53;;;30.58;;
27566;SDS011;15006;48.584;9.186;2022-12-18T07:00:41;74.22;;;30.45;;
27566;SDS011;15006;48.584;9.186;2022-12-18T07:03:07;78.03;;;28.95;;
27566;SDS011;15006;48.584;9.186;2022-12-18T07:05:33;68.82;;;27.08;;
27566;SDS011;15006;48.584;9.186;2022-12-18T07:07:59;75.20;;;27.85;;
27566;SDS011;15006;48.584;9.186;2022-12-18T07:10:25;78.10;;;27.60;;
27566;SDS011;15006;48.584;9.186;2022-12-18T07:12:51;67.00;;;25.98;;
27566;SDS011;15006;48.584;9.186;2022-12-18T07:15:17;69.80;;;28.50;;
27566;SDS011;15006;48.584;9.186;2022-12-18T07:17:44;76.82;;;27.60;;
27566;SDS011;15006;48.584;9.186;2022-12-18T07:20:10;74.47;;;26.98;;
27566;SDS011;15006;48.584;9.186;2022-12-18T07:22:36;70.10;;;28.08;;
27566;SDS011;15006;48.584;9.186;2022-12-18T07:25:02;71.53;;;27.65;;
27566;SDS011;15006;48.584;9.186;2022-12-18T07:27:28;75.45;;;30.67;;
27566;SDS011;15006;48.584;9.186;2022-12-18T07:29:54;79.15;;;31.45;;
27566;SDS011;15006;48.584;9.186;2022-12-18T07:32:20;82.00;;;31.55;;
27566;SDS011;15006;48.584;9.186;2022-12-18T07:34:46;76.80;;;29.65;;
27566;SDS011;15006;48.584;9.186;2022-12-18T07:37:12;68.32;;;28.58;;
27566;SDS011;15006;48.584;9.186;2022-12-18T07:39:38;68.68;;;28.60;;
27566;SDS011;15006;48.584;9.186;2022-12-18T07:42:07;82.10;;;30.10;;
27566;SDS011;15006;48.584;9.186;2022-12-18T07:44:51;68.15;;;28.35;;
27566;SDS011;15006;48.584;9.186;2022-12-18T07:47:17;74.40;;;28.67;;
27566;SDS011;15006;48.584;9.186;2022-12-18T07:49:43;81.65;;;34.97;;
27566;SDS011;15006;48.584;9.186;2022-12-18T07:52:10;74.18;;;32.00;;
27566;SDS011;15006;48.584;9.186;2022-12-18T07:54:37;84.57;;;34.38;;
27566;SDS011;15006;48.584;9.186;2022-12-18T07:57:04;82.93;;;34.83;;
27566;SDS011;15006;48.584;9.186;2022-12-18T07:59:30;78.82;;;32.17;;
27566;SDS011;15006;48.584;9.186;2022-12-18T08:01:56;86.97;;;34.40;;
27566;SDS011;15006;48.584;9.186;2022-12-18T08:04:22;90.50;;;35.22;;
27566;SDS011;15006;48.584;9.186;2022-12-18T08:06:48;89.75;;;37.58;;
27566;SDS011;15006;48.584;9.186;2022-12-18T08:09:14;93.22;;;37.10;;
27566;SDS011;15006;48.584;9.186;2022-12-18T08:11:40;88.32;;;37.00;;
27566;SDS011;15006;48.584;9.186;2022-12-18T08:14:06;98.93;;;38.03;;
27566;SDS011;15006;48.584;9.186;2022-12-18T08:16:32;96.60;;;39.05;;
27566;SDS011;15006;48.584;9.186;2022-12-18T08:18:58;95.13;;;38.08;;
27566;SDS011;15006;48.584;9.186;2022-12-18T08:21:25;92.50;;;39.80;;
27566;SDS011;15006;48.584;9.186;2022-12-18T08:23:55;100.65;;;39.88;;
27566;SDS011;15006;48.584;9.186;2022-12-18T08:26:24;105.45;;;41.10;;
27566;SDS011;15006;48.584;9.186;2022-12-18T08:28:59;99.20;;;42.35;;
27566;SDS011;15006;48.584;9.186;2022-12-18T08:31:52;99.80;;;38.00;;
27566;SDS011;15006;48.584;9.186;2022-12-18T08:34:18;88.40;;;38.03;;
27566;SDS011;15006;48.584;9.186;2022-12-18T08:36:44;104.70;;;40.72;;
27566;SDS011;15006;48.584;9.186;2022-12-18T08:39:10;101.57;;;39.83;;
27566;SDS011;15006;48.584;9.186;2022-12-18T08:41:36;90.18;;;37.60;;
27566;SDS011;15006;48.584;9.186;2022-12-18T08:44:02;90.60;;;37.17;;
27566;SDS011;15006;48.584;9.186;2022-12-18T08:46:47;93.65;;;37.40;;
27566;SDS011;15006;48.584;9.186;2022-12-18T08:49:13;96.38;;;39.25;;
27566;SDS011;15006;48.584;9.186;2022-12-18T08:51:39;102.50;;;42.67;;
27566;SDS011;15006;48.584;9.186;2022-12-18T08:54:05;125.80;;;53.55;;
27566;SDS011;15006;48.584;9.186;2022-12-18T08:56:32;137.60;;;58.85;;
27566;SDS011;15006;48.584;9.186;2022-12-18T08:58:58;150.98;;;64.28;;
27566;SDS011;15006;48.584;9.186;2022-12-18T09:01:24;137.05;;;57.80;;
27566;SDS011;15006;48.584;9.186;2022-12-18T09:03:50;122.82;;;49.67;;
27566;SDS011;15006;48.584;9.186;2022-12-18T09:06:17;176.38;;;69.28;;
27566;SDS011;15006;48.584;9.186;2022-12-18T09:08:44;168.45;;;69.25;;
27566;SDS011;15006;48.584;9.186;2022-12-18T09:11:21;170.70;;;69.78;;
27566;SDS011;15006;48.584;9.186;2022-12-18T09:13:50;146.02;;;62.58;;
27566;SDS011;15006;48.584;9.186;2022-12-18T09:16:17;178.10;;;71.65;;
27566;SDS011;15006;48.584;9.186;2022-12-18T09:18:43;161.50;;;67.88;;
27566;SDS011;15006;48.584;9.186;2022-12-18T09:21:13;147.75;;;62.05;;
27566;SDS011;15006;48.584;9.186;2022-12-18T09:23:43;144.43;;;58.08;;
27566;SDS011;15006;48.584;9.186;2022-12-18T09:26:09;135.13;;;55.88;;
27566;SDS011;15006;48.584;9.186;2022-12-18T09:28:35;149.40;;;57.58;;
27566;SDS011;15006;48.584;9.186;2022-12-18T09:31:05;142.90;;;58.08;;
27566;SDS011;15006;48.584;9.186;2022-12-18T09:33:34;124.35;;;55.72;;
27566;SDS011;15006;48.584;9.186;2022-12-18T09:36:03;119.00;;;51.35;;
27566;SDS011;15006;48.584;9.186;2022-12-18T09:38:32;109.13;;;46.53;;
27566;SDS011;15006;48.584;9.186;2022-12-18T09:41:06;99.90;;;46.20;;
27566;SDS011;15006;48.584;9.186;2022-12-18T09:49:21;99.53;;;43.13;;
27566;SDS011;15006;48.584;9.186;2022-12-18T09:51:53;93.72;;;38.78;;
27566;SDS011;15006;48.584;9.186;2022-12-18T09:54:26;89.68;;;37.53;;
27566;SDS011;15006;48.584;9.186;2022-12-18T09:57:01;85.97;;;36.45;;
27566;SDS011;15006;48.584;9.186;2022-12-18T09:59:35;82.60;;;34.90;;
27566;SDS011;15006;48.584;9.186;2022-12-18T10:02:12;87.63;;;39.50;;
27566;SDS011;15006;48.584;9.186;2022-12-18T10:04:42;92.10;;;42.78;;
27566;SDS011;15006;48.584;9.186;2022-12-18T10:07:11;92.43;;;42.15;;
27566;SDS011;15006;48.584;9.186;2022-12-18T10:13:07;91.28;;;36.13;;
27566;SDS011;15006;48.584;9.186;2022-12-18T10:19:15;90.78;;;38.35;;
27566;SDS011;15006;48.584;9.186;2022-12-18T10:24:51;69.30;;;27.90;;
27566;SDS011;15006;48.584;9.186;2022-12-18T10:27:51;85.78;;;36.35;;
27566;SDS011;15006;48.584;9.186;2022-12-18T10:30:22;86.57;;;37.35;;
27566;SDS011;15006;48.584;9.186;2022-12-18T10:33:02;84.72;;;35.45;;
27566;SDS011;15006;48.584;9.186;2022-12-18T10:35:28;85.80;;;36.50;;
27566;SDS011;15006;48.584;9.186;2022-12-18T10:40:28;80.40;;;35.83;;
27566;SDS011;15006;48.584;9.186;2022-12-18T10:43:13;81.80;;;35.78;;
27566;SDS011;15006;48.584;9.186;2022-12-18T10:45:42;79.20;;;35.70;;
27566;SDS011;15006;48.584;9.186;2022-12-18T10:51:05;79.10;;;35.58;;
27566;SDS011;15006;48.584;9.186;2022-12-18T10:53:36;79.80;;;35.70;;
27566;SDS011;15006;48.584;9.186;2022-12-18T10:56:03;78.13;;;35.75;;
27566;SDS011;15006;48.584;9.186;2022-12-18T10:58:33;81.00;;;35.58;;
27566;SDS011;15006;48.584;9.186;2022-12-18T11:01:12;79.32;;;35.08;;
27566;SDS011;15006;48.584;9.186;2022-12-18T11:06:13;71.80;;;32.83;;
27566;SDS011;15006;48.584;9.186;2022-12-18T11:09:59;60.67;;;29.33;;
27566;SDS011;15006;48.584;9.186;2022-12-18T11:11:49;65.57;;;31.58;;
27566;SDS011;15006;48.584;9.186;2022-12-18T11:16:58;57.28;;;30.17;;
27566;SDS011;15006;48.584;9.186;2022-12-18T11:19:28;55.35;;;30.35;;
27566;SDS011;15006;48.584;9.186;2022-12-18T11:22:02;57.80;;;31.77;;
27566;SDS011;15006;48.584;9.186;2022-12-18T11:25:19;59.65;;;32.25;;
27566;SDS011;15006;48.584;9.186;2022-12-18T11:27:46;50.70;;;30.02;;
27566;SDS011;15006;48.584;9.186;2022-12-18T11:30:25;51.65;;;29.15;;
27566;SDS011;15006;48.584;9.186;2022-12-18T11:33:15;53.70;;;30.00;;
27566;SDS011;15006;48.584;9.186;2022-12-18T11:35:51;46.35;;;28.40;;
27566;SDS011;15006;48.584;9.186;2022-12-18T11:38:34;52.75;;;30.60;;
27566;SDS011;15006;48.584;9.186;2022-12-18T11:41:14;49.13;;;29.13;;
27566;SDS011;15006;48.584;9.186;2022-12-18T11:43:52;51.08;;;29.52;;
27566;SDS011;15006;48.584;9.186;2022-12-18T11:46:34;43.17;;;27.90;;
27566;SDS011;15006;48.584;9.186;2022-12-18T11:54:41;45.50;;;28.05;;
27566;SDS011;15006;48.584;9.186;2022-12-18T12:00:04;40.03;;;25.98;;
27566;SDS011;15006;48.584;9.186;2022-12-18T12:12:16;38.70;;;25.40;;
27566;SDS011;15006;48.584;9.186;2022-12-18T12:21:20;35.80;;;23.65;;
27566;SDS011;15006;48.584;9.186;2022-12-18T12:24:23;38.17;;;24.88;;
27566;SDS011;15006;48.584;9.186;2022-12-18T12:30:21;39.55;;;25.13;;
27566;SDS011;15006;48.584;9.186;2022-12-18T12:33:02;42.90;;;25.55;;
27566;SDS011;15006;48.584;9.186;2022-12-18T12:35:46;41.13;;;25.30;;
27566;SDS011;15006;48.584;9.186;2022-12-18T12:38:42;42.58;;;25.83;;
27566;SDS011;15006;48.584;9.186;2022-12-18T12:41:18;42.63;;;25.38;;
27566;SDS011;15006;48.584;9.186;2022-12-18T12:44:08;44.60;;;25.17;;
27566;SDS011;15006;48.584;9.186;2022-12-18T12:46:41;44.13;;;26.00;;
27566;SDS011;15006;48.584;9.186;2022-12-18T12:49:10;46.58;;;26.83;;
27566;SDS011;15006;48.584;9.186;2022-12-18T12:51:43;47.50;;;27.23;;
27566;SDS011;15006;48.584;9.186;2022-12-18T12:54:19;46.78;;;27.50;;
27566;SDS011;15006;48.584;9.186;2022-12-18T12:57:00;45.78;;;27.17;;
27566;SDS011;15006;48.584;9.186;2022-12-18T12:59:56;50.75;;;28.02;;
27566;SDS011;15006;48.584;9.186;2022-12-18T13:08:07;55.60;;;29.00;;
27566;SDS011;15006;48.584;9.186;2022-12-18T13:10:51;49.83;;;27.75;;
27566;SDS011;15006;48.584;9.186;2022-12-18T13:13:52;49.33;;;26.80;;
27566;SDS011;15006;48.584;9.186;2022-12-18T13:16:24;49.03;;;26.70;;
27566;SDS011;15006;48.584;9.186;2022-12-18T13:18:56;51.25;;;27.42;;
27566;SDS011;15006;48.584;9.186;2022-12-18T13:21:31;51.58;;;27.75;;
27566;SDS011;15006;48.584;9.186;2022-12-18T13:24:14;53.72;;;28.55;;
27566;SDS011;15006;48.584;9.186;2022-12-18T13:26:52;50.50;;;28.35;;
27566;SDS011;15006;48.584;9.186;2022-12-18T13:32:25;52.78;;;29.00;;
27566;SDS011;15006;48.584;9.186;2022-12-18T13:37:59;52.67;;;28.40;;
27566;SDS011;15006;48.584;9.186;2022-12-18T13:43:15;53.05;;;28.13;;
27566;SDS011;15006;48.584;9.186;2022-12-18T13:45:48;50.70;;;26.90;;
27566;SDS011;15006;48.584;9.186;2022-12-18T13:48:29;47.72;;;26.65;;
27566;SDS011;15006;48.584;9.186;2022-12-18T13:51:08;52.38;;;28.88;;
27566;SDS011;15006;48.584;9.186;2022-12-18T13:53:38;48.38;;;27.42;;
27566;SDS011;15006;48.584;9.186;2022-12-18T13:56:09;52.63;;;28.77;;
27566;SDS011;15006;48.584;9.186;2022-12-18T14:01:51;52.88;;;28.90;;
27566;SDS011;15006;48.584;9.186;2022-12-18T14:04:24;53.05;;;28.00;;
27566;SDS011;15006;48.584;9.186;2022-12-18T14:06:58;52.33;;;28.17;;
27566;SDS011;15006;48.584;9.186;2022-12-18T14:09:34;53.22;;;27.83;;
27566;SDS011;15006;48.584;9.186;2022-12-18T14:12:05;55.30;;;28.58;;
27566;SDS011;15006;48.584;9.186;2022-12-18T14:14:50;52.63;;;28.80;;
27566;SDS011;15006;48.584;9.186;2022-12-18T14:17:18;55.13;;;29.35;;
27566;SDS011;15006;48.584;9.186;2022-12-18T14:19:45;56.78;;;30.23;;
27566;SDS011;15006;48.584;9.186;2022-12-18T14:22:24;59.83;;;30.60;;
27566;SDS011;15006;48.584;9.186;2022-12-18T14:30:35;70.28;;;34.53;;
27566;SDS011;15006;48.584;9.186;2022-12-18T14:33:45;79.68;;;39.92;;
27566;SDS011;15006;48.584;9.186;2022-12-18T14:38:36;82.53;;;43.10;;
27566;SDS011;15006;48.584;9.186;2022-12-18T14:43:37;76.10;;;39.78;;
27566;SDS011;15006;48.584;9.186;2022-12-18T14:46:06;80.97;;;42.00;;
27566;SDS011;15006;48.584;9.186;2022-12-18T14:49:18;80.10;;;39.42;;
27566;SDS011;15006;48.584;9.186;2022-12-18T14:51:56;74.90;;;37.25;;
27566;SDS011;15006;48.584;9.186;2022-12-18T14:54:24;71.15;;;35.22;;
27566;SDS011;15006;48.584;9.186;2022-12-18T14:56:54;63.13;;;31.80;;
27566;SDS011;15006;48.584;9.186;2022-12-18T14:59:55;71.30;;;33.50;;
27566;SDS011;15006;48.584;9.186;2022-12-18T15:02:41;68.40;;;33.75;;
27566;SDS011;15006;48.584;9.186;2022-12-18T15:05:18;75.82;;;35.88;;
27566;SDS011;15006;48.584;9.186;2022-12-18T15:07:51;74.63;;;35.15;;
27566;SDS011;15006;48.584;9.186;2022-12-18T15:10:25;79.55;;;37.50;;
27566;SDS011;15006;48.584;9.186;2022-12-18T15:20:42;70.55;;;34.33;;
27566;SDS011;15006;48.584;9.186;2022-12-18T15:23:15;69.00;;;32.00;;
27566;SDS011;15006;48.584;9.186;2022-12-18T15:28:26;77.95;;;36.10;;
27566;SDS011;15006;48.584;9.186;2022-12-18T15:33:41;68.30;;;33.28;;
27566;SDS011;15006;48.584;9.186;2022-12-18T15:36:38;67.95;;;33.08;;
27566;SDS011;15006;48.584;9.186;2022-12-18T15:39:04;79.40;;;36.22;;
27566;SDS011;15006;48.584;9.186;2022-12-18T15:41:31;94.13;;;40.53;;
27566;SDS011;15006;48.584;9.186;2022-12-18T15:43:59;90.60;;;40.83;;
27566;SDS011;15006;48.584;9.186;2022-12-18T15:46:26;84.00;;;40.33;;
27566;SDS011;15006;48.584;9.186;2022-12-18T15:48:53;91.40;;;40.78;;
27566;SDS011;15006;48.584;9.186;2022-12-18T15:51:28;88.65;;;41.88;;
27566;SDS011;15006;48.584;9.186;2022-12-18T15:54:04;97.40;;;43.78;;
27566;SDS011;15006;48.584;9.186;2022-12-18T15:56:36;90.88;;;41.80;;
27566;SDS011;15006;48.584;9.186;2022-12-18T15:59:20;101.47;;;46.15;;
27566;SDS011;15006;48.584;9.186;2022-12-18T16:01:49;96.75;;;43.38;;
27566;SDS011;15006;48.584;9.186;2022-12-18T16:04:18;69.33;;;32.47;;
27566;SDS011;15006;48.584;9.186;2022-12-18T16:06:46;103.65;;;45.45;;
27566;SDS011;15006;48.584;9.186;2022-12-18T16:09:13;110.07;;;47.72;;
27566;SDS011;15006;48.584;9.186;2022-12-18T16:11:41;133.65;;;56.97;;
27566;SDS011;15006;48.584;9.186;2022-12-18T16:16:46;126.93;;;54.30;;
27566;SDS011;15006;48.584;9.186;2022-12-18T16:19:18;112.32;;;49.13;;
27566;SDS011;15006;48.584;9.186;2022-12-18T16:21:46;120.38;;;50.53;;
27566;SDS011;15006;48.584;9.186;2022-12-18T16:24:21;122.07;;;53.08;;
27566;SDS011;15006;48.584;9.186;2022-12-18T16:26:57;115.63;;;50.08;;
27566;SDS011;15006;48.584;9.186;2022-12-18T16:29:26;120.07;;;50.38;;
27566;SDS011;15006;48.584;9.186;2022-12-18T16:31:57;116.57;;;50.13;;
27566;SDS011;15006;48.584;9.186;2022-12-18T16:34:29;111.47;;;46.70;;
27566;SDS011;15006;48.584;9.186;2022-12-18T16:36:59;110.45;;;47.30;;
27566;SDS011;15006;48.584;9.186;2022-12-18T16:39:28;122.65;;;50.90;;
27566;SDS011;15006;48.584;9.186;2022-12-18T16:41:56;111.25;;;47.40;;
27566;SDS011;15006;48.584;9.186;2022-12-18T16:44:22;122.43;;;49.90;;
27566;SDS011;15006;48.584;9.186;2022-12-18T16:46:48;112.72;;;47.13;;